首页
METAR-TAF:

METAR-TAF

机场 :

塔什干国际机场

塔什干, 乌兹别克斯坦

纬度: 41-16N, 经度: 069-16E, 海拔: 489米

当前天气观测

该预报发布于30分钟前的01:30 UTC
风速6节,风向南转南东,在东转东南之间变化
温度 24°C
湿度 41%
气压 1009 hPa
能见度10公里或以上
1500米以下无云,无积雨云

METAR: UTTT 310130Z 15006KT 120V180 CAVOK 24/10 Q1009 R08R/CLRD70 NOSIG

时间: 07:00 (02:00 UTC)

预报

该预报发布于3小时和0分钟前的23:00 UTC
预报有效从31日的 00点(UTC)到 31日的 24点(UTC)
风速10节,风向
能見度: 7000
短暂存在
从 31日的 06点(UTC)到 31日的 15点(UTC)
风速10节,风向西南,有时为20节阵风
少量云层高于6000英尺, 积雨云.

TAF: UTTT 302300Z 3100/3124 09010KT 7000 NSC TX36/3110Z TEMPO 3106/3115 22010G20KT FEW060CB

超过4000个机场的气象观测和天气预报(METAR&TAF报告)。

可查询的气象台以黄色和红色小点在地图上表示。

将鼠标移到小点上方,可查看气象台名称。

然后点击查看天气观测和预报。

如需切换地图:点击带黑十字的绿色按钮放大地图;点击带横线的绿色按钮缩小地图;或者点击绿色箭头查看邻近地区的地图。


METAR-TAF: